Aeroporto :
LOGIN :

Iscrizione | Disclaimer

   EN    FR    IT 

 










Sommario :    VFR   VFR Marginale   IFR   IFR Intensivo   IFR Molto Intensivo
Visibilità : 
Base nubi : 
>= 8 km
>= 3000ft
5 / 8 km
1000 / 3000 ft
1500m / 5 km
500 / 1000 ft
800 / 1500m
200 / 500 ft
< 800m
< 200 ft
Simboli :   Temporali  Nebbia  Neve Forte  Precipitazioni Forti  Vento > 20 kt
SIGMETs :   Varie  Temporali  Ghiacco  Turbolenza  Onda orograficha  Ceneri Vulcaniche







- Altitudine del aeroporto : 28 ft
- Codice IATA : SOZ
- Carte del aeroporto


LFKS - Solenzara

ULTIMO METAR :
  • 190800Z AUTO 28005KT 250V330 9999 OVC040 09/03 Q1023

METARs OBSOLETI :
  • 190730Z AUTO 29005KT 260V330 9999 OVC038 08/03 Q1023
  • 190700Z AUTO 29006KT 260V320 9999 OVC038 08/02 Q1023
  • 190630Z AUTO 28005KT 250V320 9999 OVC037 08/03 Q1023
  • 190600Z AUTO 30003KT 260V350 9999 OVC036 08/02 Q1023
  • 190530Z AUTO 28005KT 250V320 9999 OVC036 08/02 Q1023

TAF TAF LFKS
Valido dal 19 a 03 ore il 20 a 03 ore UTC


190200Z 1903/2003 27003KT 9999 BKN035
BECMG 1911/1913 15010KT
TEMPO 1913/1916 15010G20KT
Nessun NOTAM noto per questo aeroporto.



MetMap, La meteo Aeronautica in un colpo d'occhio ! - Copyright ORBIFLY Dicembre 2007 - Disclaimer

ORBIFLY MET'MAP TEAM :

Programmazione e sviluppo : Alexandra Zaïnal
Concezione e sviluppo : Baudouin d'Aumeries
Co-Programmazione e sviluppo : Marc-Olivier Méhu
Supporto tecnico e logistico : Manuel Goepfert
Aiuto per la traduzione : Arnaldo La Scala

Contatto : metmap@orbifly.com




FONTI E CREDITI :

   NOAA